sensor_id;sensor_type;location;lat;lon;timestamp;P1;durP1;ratioP1;P2;durP2;ratioP2
45254;SDS011;30989;52.078;21.014;2023-04-09T00:00:42;18.80;;;8.90;;
45254;SDS011;30989;52.078;21.014;2023-04-09T00:03:07;15.90;;;7.68;;
45254;SDS011;30989;52.078;21.014;2023-04-09T00:05:37;14.40;;;7.53;;
45254;SDS011;30989;52.078;21.014;2023-04-09T00:08:05;16.50;;;8.73;;
45254;SDS011;30989;52.078;21.014;2023-04-09T00:10:31;16.75;;;8.00;;
45254;SDS011;30989;52.078;21.014;2023-04-09T00:12:57;17.25;;;9.10;;
45254;SDS011;30989;52.078;21.014;2023-04-09T00:15:22;19.05;;;8.55;;
45254;SDS011;30989;52.078;21.014;2023-04-09T00:17:47;16.30;;;8.60;;
45254;SDS011;30989;52.078;21.014;2023-04-09T00:20:13;18.65;;;8.98;;
45254;SDS011;30989;52.078;21.014;2023-04-09T00:22:38;14.77;;;7.25;;
45254;SDS011;30989;52.078;21.014;2023-04-09T00:25:04;15.80;;;8.40;;
45254;SDS011;30989;52.078;21.014;2023-04-09T00:27:30;18.25;;;8.90;;
45254;SDS011;30989;52.078;21.014;2023-04-09T00:29:56;16.45;;;8.38;;
45254;SDS011;30989;52.078;21.014;2023-04-09T00:32:21;14.98;;;7.80;;
45254;SDS011;30989;52.078;21.014;2023-04-09T00:34:47;17.10;;;8.32;;
45254;SDS011;30989;52.078;21.014;2023-04-09T00:37:12;13.98;;;7.07;;
45254;SDS011;30989;52.078;21.014;2023-04-09T00:39:37;16.45;;;8.68;;
45254;SDS011;30989;52.078;21.014;2023-04-09T00:42:03;17.10;;;7.78;;
45254;SDS011;30989;52.078;21.014;2023-04-09T00:44:29;15.68;;;7.78;;
45254;SDS011;30989;52.078;21.014;2023-04-09T00:46:54;15.90;;;8.00;;
45254;SDS011;30989;52.078;21.014;2023-04-09T00:49:22;14.95;;;7.50;;
45254;SDS011;30989;52.078;21.014;2023-04-09T00:51:50;16.90;;;8.48;;
45254;SDS011;30989;52.078;21.014;2023-04-09T00:54:16;17.27;;;8.10;;
45254;SDS011;30989;52.078;21.014;2023-04-09T00:56:41;16.08;;;7.93;;
45254;SDS011;30989;52.078;21.014;2023-04-09T00:59:08;13.63;;;7.20;;
45254;SDS011;30989;52.078;21.014;2023-04-09T01:01:33;21.70;;;8.95;;
45254;SDS011;30989;52.078;21.014;2023-04-09T01:03:59;18.10;;;8.52;;
45254;SDS011;30989;52.078;21.014;2023-04-09T01:11:39;16.63;;;8.05;;
45254;SDS011;30989;52.078;21.014;2023-04-09T01:17:49;13.35;;;7.32;;
45254;SDS011;30989;52.078;21.014;2023-04-09T01:20:12;19.58;;;9.15;;
45254;SDS011;30989;52.078;21.014;2023-04-09T01:25:34;18.30;;;8.50;;
45254;SDS011;30989;52.078;21.014;2023-04-09T01:28:24;14.30;;;7.50;;
45254;SDS011;30989;52.078;21.014;2023-04-09T01:30:58;21.03;;;10.50;;
45254;SDS011;30989;52.078;21.014;2023-04-09T01:33:27;16.17;;;8.27;;
45254;SDS011;30989;52.078;21.014;2023-04-09T01:35:54;19.83;;;7.93;;
45254;SDS011;30989;52.078;21.014;2023-04-09T01:38:21;18.40;;;8.27;;
45254;SDS011;30989;52.078;21.014;2023-04-09T01:40:48;17.25;;;8.20;;
45254;SDS011;30989;52.078;21.014;2023-04-09T01:43:14;18.33;;;8.50;;
45254;SDS011;30989;52.078;21.014;2023-04-09T01:45:41;17.35;;;9.00;;
45254;SDS011;30989;52.078;21.014;2023-04-09T01:48:10;15.73;;;8.07;;
45254;SDS011;30989;52.078;21.014;2023-04-09T01:50:36;17.00;;;8.93;;
45254;SDS011;30989;52.078;21.014;2023-04-09T01:53:02;18.88;;;10.07;;
45254;SDS011;30989;52.078;21.014;2023-04-09T01:55:28;16.05;;;7.97;;
45254;SDS011;30989;52.078;21.014;2023-04-09T01:57:53;18.77;;;9.43;;
45254;SDS011;30989;52.078;21.014;2023-04-09T02:00:19;17.17;;;8.85;;
45254;SDS011;30989;52.078;21.014;2023-04-09T02:02:50;18.77;;;9.15;;
45254;SDS011;30989;52.078;21.014;2023-04-09T02:05:36;17.00;;;8.68;;
45254;SDS011;30989;52.078;21.014;2023-04-09T02:08:06;20.20;;;9.90;;
45254;SDS011;30989;52.078;21.014;2023-04-09T02:10:37;20.38;;;10.23;;
45254;SDS011;30989;52.078;21.014;2023-04-09T02:13:04;18.92;;;9.18;;
45254;SDS011;30989;52.078;21.014;2023-04-09T02:15:35;18.17;;;8.93;;
45254;SDS011;30989;52.078;21.014;2023-04-09T02:18:03;17.38;;;8.15;;
45254;SDS011;30989;52.078;21.014;2023-04-09T02:20:28;17.38;;;8.70;;
45254;SDS011;30989;52.078;21.014;2023-04-09T02:22:54;18.20;;;9.35;;
45254;SDS011;30989;52.078;21.014;2023-04-09T02:25:21;18.98;;;9.02;;
45254;SDS011;30989;52.078;21.014;2023-04-09T02:27:46;16.13;;;8.55;;
45254;SDS011;30989;52.078;21.014;2023-04-09T02:30:12;18.25;;;8.93;;
45254;SDS011;30989;52.078;21.014;2023-04-09T02:32:37;17.50;;;9.43;;
45254;SDS011;30989;52.078;21.014;2023-04-09T02:35:03;17.50;;;9.90;;
45254;SDS011;30989;52.078;21.014;2023-04-09T02:37:29;20.95;;;10.38;;
45254;SDS011;30989;52.078;21.014;2023-04-09T02:39:55;21.50;;;10.98;;
45254;SDS011;30989;52.078;21.014;2023-04-09T02:42:20;21.05;;;10.23;;
45254;SDS011;30989;52.078;21.014;2023-04-09T02:44:46;22.67;;;10.75;;
45254;SDS011;30989;52.078;21.014;2023-04-09T02:47:13;23.25;;;10.20;;
45254;SDS011;30989;52.078;21.014;2023-04-09T02:49:38;25.77;;;12.02;;
45254;SDS011;30989;52.078;21.014;2023-04-09T02:52:04;21.15;;;11.43;;
45254;SDS011;30989;52.078;21.014;2023-04-09T02:54:29;23.52;;;11.57;;
45254;SDS011;30989;52.078;21.014;2023-04-09T02:56:55;20.05;;;10.75;;
45254;SDS011;30989;52.078;21.014;2023-04-09T02:59:20;20.67;;;11.18;;
45254;SDS011;30989;52.078;21.014;2023-04-09T03:01:46;18.17;;;9.57;;
45254;SDS011;30989;52.078;21.014;2023-04-09T03:04:11;19.58;;;10.05;;
45254;SDS011;30989;52.078;21.014;2023-04-09T03:06:37;19.95;;;10.90;;
45254;SDS011;30989;52.078;21.014;2023-04-09T03:09:02;19.02;;;9.70;;
45254;SDS011;30989;52.078;21.014;2023-04-09T03:11:28;19.00;;;9.15;;
45254;SDS011;30989;52.078;21.014;2023-04-09T03:13:53;20.10;;;10.63;;
45254;SDS011;30989;52.078;21.014;2023-04-09T03:16:19;20.80;;;9.63;;
45254;SDS011;30989;52.078;21.014;2023-04-09T03:18:44;18.05;;;9.20;;
45254;SDS011;30989;52.078;21.014;2023-04-09T03:21:10;23.60;;;11.68;;
45254;SDS011;30989;52.078;21.014;2023-04-09T03:23:43;19.70;;;10.27;;
45254;SDS011;30989;52.078;21.014;2023-04-09T03:26:08;20.63;;;10.18;;
45254;SDS011;30989;52.078;21.014;2023-04-09T03:28:41;20.08;;;10.57;;
45254;SDS011;30989;52.078;21.014;2023-04-09T03:31:07;23.55;;;10.48;;
45254;SDS011;30989;52.078;21.014;2023-04-09T03:33:35;15.88;;;8.77;;
45254;SDS011;30989;52.078;21.014;2023-04-09T03:36:01;15.60;;;8.65;;
45254;SDS011;30989;52.078;21.014;2023-04-09T03:38:40;24.60;;;11.35;;
45254;SDS011;30989;52.078;21.014;2023-04-09T03:41:13;21.10;;;10.50;;
45254;SDS011;30989;52.078;21.014;2023-04-09T03:43:38;20.00;;;10.15;;
45254;SDS011;30989;52.078;21.014;2023-04-09T03:46:14;21.75;;;10.63;;
45254;SDS011;30989;52.078;21.014;2023-04-09T03:48:43;21.02;;;10.10;;
45254;SDS011;30989;52.078;21.014;2023-04-09T03:51:10;17.55;;;9.88;;
45254;SDS011;30989;52.078;21.014;2023-04-09T03:53:37;15.43;;;9.13;;
45254;SDS011;30989;52.078;21.014;2023-04-09T03:56:05;20.75;;;9.80;;
45254;SDS011;30989;52.078;21.014;2023-04-09T03:58:32;18.58;;;10.55;;
45254;SDS011;30989;52.078;21.014;2023-04-09T04:00:59;18.80;;;9.95;;
45254;SDS011;30989;52.078;21.014;2023-04-09T04:03:35;20.08;;;10.45;;
45254;SDS011;30989;52.078;21.014;2023-04-09T04:06:24;19.23;;;9.82;;
45254;SDS011;30989;52.078;21.014;2023-04-09T04:09:05;20.30;;;9.90;;
45254;SDS011;30989;52.078;21.014;2023-04-09T04:11:42;18.85;;;10.00;;
45254;SDS011;30989;52.078;21.014;2023-04-09T04:14:08;17.42;;;9.95;;
45254;SDS011;30989;52.078;21.014;2023-04-09T04:16:34;18.67;;;9.90;;
45254;SDS011;30989;52.078;21.014;2023-04-09T04:19:01;24.73;;;11.13;;
45254;SDS011;30989;52.078;21.014;2023-04-09T04:21:29;18.25;;;9.85;;
45254;SDS011;30989;52.078;21.014;2023-04-09T04:23:59;16.80;;;9.70;;
45254;SDS011;30989;52.078;21.014;2023-04-09T04:26:27;20.05;;;10.65;;
45254;SDS011;30989;52.078;21.014;2023-04-09T04:28:52;19.20;;;10.35;;
45254;SDS011;30989;52.078;21.014;2023-04-09T04:31:42;22.15;;;10.32;;
45254;SDS011;30989;52.078;21.014;2023-04-09T04:34:07;22.50;;;11.30;;
45254;SDS011;30989;52.078;21.014;2023-04-09T04:36:33;21.33;;;9.90;;
45254;SDS011;30989;52.078;21.014;2023-04-09T04:39:01;21.67;;;10.98;;
45254;SDS011;30989;52.078;21.014;2023-04-09T04:41:32;21.83;;;11.18;;
45254;SDS011;30989;52.078;21.014;2023-04-09T04:44:18;18.85;;;10.80;;
45254;SDS011;30989;52.078;21.014;2023-04-09T04:46:44;19.98;;;10.40;;
45254;SDS011;30989;52.078;21.014;2023-04-09T04:49:10;24.80;;;11.35;;
45254;SDS011;30989;52.078;21.014;2023-04-09T04:51:42;18.95;;;10.02;;
45254;SDS011;30989;52.078;21.014;2023-04-09T04:54:11;20.38;;;10.18;;
45254;SDS011;30989;52.078;21.014;2023-04-09T04:56:37;19.02;;;10.40;;
45254;SDS011;30989;52.078;21.014;2023-04-09T04:59:13;20.83;;;10.75;;
45254;SDS011;30989;52.078;21.014;2023-04-09T05:02:00;21.63;;;10.68;;
45254;SDS011;30989;52.078;21.014;2023-04-09T05:04:30;18.98;;;9.82;;
45254;SDS011;30989;52.078;21.014;2023-04-09T05:06:57;21.83;;;10.55;;
45254;SDS011;30989;52.078;21.014;2023-04-09T05:09:24;18.70;;;9.60;;
45254;SDS011;30989;52.078;21.014;2023-04-09T05:12:07;25.42;;;12.70;;
45254;SDS011;30989;52.078;21.014;2023-04-09T05:14:33;20.77;;;9.75;;
45254;SDS011;30989;52.078;21.014;2023-04-09T05:16:59;20.50;;;10.55;;
45254;SDS011;30989;52.078;21.014;2023-04-09T05:19:31;17.30;;;9.80;;
45254;SDS011;30989;52.078;21.014;2023-04-09T05:22:00;19.08;;;10.35;;
45254;SDS011;30989;52.078;21.014;2023-04-09T05:24:25;20.88;;;9.73;;
45254;SDS011;30989;52.078;21.014;2023-04-09T05:26:51;17.42;;;9.00;;
45254;SDS011;30989;52.078;21.014;2023-04-09T05:29:16;23.23;;;10.50;;
45254;SDS011;30989;52.078;21.014;2023-04-09T05:31:42;18.58;;;9.57;;
45254;SDS011;30989;52.078;21.014;2023-04-09T05:34:16;17.65;;;8.75;;
45254;SDS011;30989;52.078;21.014;2023-04-09T05:36:46;20.17;;;10.07;;
45254;SDS011;30989;52.078;21.014;2023-04-09T05:39:13;19.25;;;9.93;;
45254;SDS011;30989;52.078;21.014;2023-04-09T05:41:38;16.98;;;8.90;;
45254;SDS011;30989;52.078;21.014;2023-04-09T05:44:24;18.80;;;10.05;;
45254;SDS011;30989;52.078;21.014;2023-04-09T05:46:54;19.38;;;10.40;;
45254;SDS011;30989;52.078;21.014;2023-04-09T05:49:26;18.05;;;9.65;;
45254;SDS011;30989;52.078;21.014;2023-04-09T05:51:55;18.52;;;9.77;;
45254;SDS011;30989;52.078;21.014;2023-04-09T05:54:25;17.48;;;10.35;;
45254;SDS011;30989;52.078;21.014;2023-04-09T05:56:50;18.45;;;9.80;;
45254;SDS011;30989;52.078;21.014;2023-04-09T05:59:16;17.15;;;8.43;;
45254;SDS011;30989;52.078;21.014;2023-04-09T06:01:42;18.67;;;9.10;;
45254;SDS011;30989;52.078;21.014;2023-04-09T06:04:08;20.23;;;9.45;;
45254;SDS011;30989;52.078;21.014;2023-04-09T06:06:33;21.33;;;9.82;;
45254;SDS011;30989;52.078;21.014;2023-04-09T06:08:59;19.60;;;10.10;;
45254;SDS011;30989;52.078;21.014;2023-04-09T06:11:24;19.20;;;10.18;;
45254;SDS011;30989;52.078;21.014;2023-04-09T06:13:51;18.35;;;10.05;;
45254;SDS011;30989;52.078;21.014;2023-04-09T06:16:16;18.52;;;9.90;;
45254;SDS011;30989;52.078;21.014;2023-04-09T06:18:41;16.35;;;9.02;;
45254;SDS011;30989;52.078;21.014;2023-04-09T06:21:07;16.00;;;8.30;;
45254;SDS011;30989;52.078;21.014;2023-04-09T06:23:34;18.27;;;9.35;;
45254;SDS011;30989;52.078;21.014;2023-04-09T06:26:00;18.10;;;9.80;;
45254;SDS011;30989;52.078;21.014;2023-04-09T06:28:29;15.38;;;8.20;;
45254;SDS011;30989;52.078;21.014;2023-04-09T06:30:55;15.70;;;9.07;;
45254;SDS011;30989;52.078;21.014;2023-04-09T06:33:21;17.95;;;8.90;;
45254;SDS011;30989;52.078;21.014;2023-04-09T06:35:47;16.25;;;8.23;;
45254;SDS011;30989;52.078;21.014;2023-04-09T06:38:13;13.70;;;6.65;;
45254;SDS011;30989;52.078;21.014;2023-04-09T06:40:40;11.23;;;6.05;;
45254;SDS011;30989;52.078;21.014;2023-04-09T06:43:06;13.00;;;6.53;;
45254;SDS011;30989;52.078;21.014;2023-04-09T06:45:40;14.48;;;7.05;;
45254;SDS011;30989;52.078;21.014;2023-04-09T06:48:05;16.95;;;7.78;;
45254;SDS011;30989;52.078;21.014;2023-04-09T06:50:31;15.82;;;7.35;;
45254;SDS011;30989;52.078;21.014;2023-04-09T06:52:56;10.45;;;6.25;;
45254;SDS011;30989;52.078;21.014;2023-04-09T06:55:22;12.80;;;6.75;;
45254;SDS011;30989;52.078;21.014;2023-04-09T06:57:47;15.45;;;7.15;;
45254;SDS011;30989;52.078;21.014;2023-04-09T07:00:13;15.60;;;7.53;;
45254;SDS011;30989;52.078;21.014;2023-04-09T07:02:38;13.38;;;7.15;;
45254;SDS011;30989;52.078;21.014;2023-04-09T07:05:04;16.60;;;6.18;;
45254;SDS011;30989;52.078;21.014;2023-04-09T07:07:30;10.73;;;5.72;;
45254;SDS011;30989;52.078;21.014;2023-04-09T07:09:55;9.70;;;5.63;;
45254;SDS011;30989;52.078;21.014;2023-04-09T07:12:31;10.50;;;5.80;;
45254;SDS011;30989;52.078;21.014;2023-04-09T07:14:57;7.47;;;4.47;;
45254;SDS011;30989;52.078;21.014;2023-04-09T07:17:23;11.60;;;6.00;;
45254;SDS011;30989;52.078;21.014;2023-04-09T07:19:49;10.57;;;6.22;;
45254;SDS011;30989;52.078;21.014;2023-04-09T07:22:21;8.90;;;4.68;;
45254;SDS011;30989;52.078;21.014;2023-04-09T07:24:47;11.95;;;6.43;;
45254;SDS011;30989;52.078;21.014;2023-04-09T07:27:21;9.98;;;5.18;;
45254;SDS011;30989;52.078;21.014;2023-04-09T07:29:47;10.50;;;5.53;;
45254;SDS011;30989;52.078;21.014;2023-04-09T07:32:13;22.67;;;10.50;;
45254;SDS011;30989;52.078;21.014;2023-04-09T07:34:40;11.23;;;5.88;;
45254;SDS011;30989;52.078;21.014;2023-04-09T07:37:05;10.63;;;4.70;;
45254;SDS011;30989;52.078;21.014;2023-04-09T07:39:31;11.57;;;5.82;;
45254;SDS011;30989;52.078;21.014;2023-04-09T07:41:56;11.57;;;6.25;;
45254;SDS011;30989;52.078;21.014;2023-04-09T07:44:22;9.27;;;4.88;;
45254;SDS011;30989;52.078;21.014;2023-04-09T07:46:48;10.30;;;5.18;;
45254;SDS011;30989;52.078;21.014;2023-04-09T07:49:14;12.40;;;6.15;;
45254;SDS011;30989;52.078;21.014;2023-04-09T07:51:40;10.95;;;5.40;;
45254;SDS011;30989;52.078;21.014;2023-04-09T07:54:06;8.05;;;4.88;;
45254;SDS011;30989;52.078;21.014;2023-04-09T07:56:31;8.80;;;4.90;;
45254;SDS011;30989;52.078;21.014;2023-04-09T07:58:57;11.80;;;5.60;;
45254;SDS011;30989;52.078;21.014;2023-04-09T08:01:22;10.55;;;5.30;;
45254;SDS011;30989;52.078;21.014;2023-04-09T08:03:50;8.55;;;4.82;;
45254;SDS011;30989;52.078;21.014;2023-04-09T08:06:15;9.15;;;4.75;;
45254;SDS011;30989;52.078;21.014;2023-04-09T08:08:41;9.73;;;5.07;;
45254;SDS011;30989;52.078;21.014;2023-04-09T08:11:07;8.65;;;4.57;;
45254;SDS011;30989;52.078;21.014;2023-04-09T08:13:33;9.52;;;4.28;;
45254;SDS011;30989;52.078;21.014;2023-04-09T08:16:01;8.95;;;5.05;;
45254;SDS011;30989;52.078;21.014;2023-04-09T08:18:27;8.73;;;5.07;;
45254;SDS011;30989;52.078;21.014;2023-04-09T08:20:54;8.40;;;4.75;;
45254;SDS011;30989;52.078;21.014;2023-04-09T08:23:20;6.60;;;3.75;;
45254;SDS011;30989;52.078;21.014;2023-04-09T08:25:45;7.38;;;4.43;;
45254;SDS011;30989;52.078;21.014;2023-04-09T08:28:11;11.68;;;5.35;;
45254;SDS011;30989;52.078;21.014;2023-04-09T08:30:39;8.40;;;4.93;;
45254;SDS011;30989;52.078;21.014;2023-04-09T08:33:05;9.48;;;4.82;;
45254;SDS011;30989;52.078;21.014;2023-04-09T08:35:31;8.88;;;5.20;;
45254;SDS011;30989;52.078;21.014;2023-04-09T08:37:57;8.57;;;5.10;;
45254;SDS011;30989;52.078;21.014;2023-04-09T08:40:23;8.65;;;5.03;;
45254;SDS011;30989;52.078;21.014;2023-04-09T08:42:53;9.15;;;4.82;;
45254;SDS011;30989;52.078;21.014;2023-04-09T08:45:21;9.77;;;4.88;;
45254;SDS011;30989;52.078;21.014;2023-04-09T08:47:47;9.90;;;4.78;;
45254;SDS011;30989;52.078;21.014;2023-04-09T08:50:14;9.43;;;5.13;;
45254;SDS011;30989;52.078;21.014;2023-04-09T08:52:40;9.98;;;5.38;;
45254;SDS011;30989;52.078;21.014;2023-04-09T08:55:07;7.82;;;4.32;;
45254;SDS011;30989;52.078;21.014;2023-04-09T08:57:38;8.43;;;5.03;;
45254;SDS011;30989;52.078;21.014;2023-04-09T09:00:05;7.90;;;4.30;;
45254;SDS011;30989;52.078;21.014;2023-04-09T09:02:32;9.57;;;5.47;;
45254;SDS011;30989;52.078;21.014;2023-04-09T09:04:57;7.13;;;4.40;;
45254;SDS011;30989;52.078;21.014;2023-04-09T09:07:28;9.20;;;5.45;;
45254;SDS011;30989;52.078;21.014;2023-04-09T09:09:55;7.88;;;4.75;;
45254;SDS011;30989;52.078;21.014;2023-04-09T09:12:33;8.82;;;4.05;;
45254;SDS011;30989;52.078;21.014;2023-04-09T09:15:24;8.10;;;4.38;;
45254;SDS011;30989;52.078;21.014;2023-04-09T09:17:55;8.02;;;4.57;;
45254;SDS011;30989;52.078;21.014;2023-04-09T09:20:22;8.88;;;4.95;;
45254;SDS011;30989;52.078;21.014;2023-04-09T09:22:48;7.22;;;4.32;;
45254;SDS011;30989;52.078;21.014;2023-04-09T09:25:15;7.40;;;3.70;;
45254;SDS011;30989;52.078;21.014;2023-04-09T09:27:40;8.25;;;4.28;;
45254;SDS011;30989;52.078;21.014;2023-04-09T09:30:07;8.25;;;4.43;;
45254;SDS011;30989;52.078;21.014;2023-04-09T09:32:34;7.22;;;3.63;;
45254;SDS011;30989;52.078;21.014;2023-04-09T09:35:01;8.15;;;4.47;;
45254;SDS011;30989;52.078;21.014;2023-04-09T09:37:29;18.90;;;9.63;;
45254;SDS011;30989;52.078;21.014;2023-04-09T09:39:55;8.30;;;4.45;;
45254;SDS011;30989;52.078;21.014;2023-04-09T09:42:21;7.80;;;4.30;;
45254;SDS011;30989;52.078;21.014;2023-04-09T09:44:46;7.68;;;4.40;;
45254;SDS011;30989;52.078;21.014;2023-04-09T09:47:12;7.40;;;4.10;;
45254;SDS011;30989;52.078;21.014;2023-04-09T09:49:38;7.28;;;4.05;;
45254;SDS011;30989;52.078;21.014;2023-04-09T09:52:09;7.80;;;4.10;;
45254;SDS011;30989;52.078;21.014;2023-04-09T09:54:39;7.32;;;4.22;;
45254;SDS011;30989;52.078;21.014;2023-04-09T09:57:09;8.00;;;3.90;;
45254;SDS011;30989;52.078;21.014;2023-04-09T09:59:37;10.20;;;5.10;;
45254;SDS011;30989;52.078;21.014;2023-04-09T10:02:07;8.80;;;4.25;;
45254;SDS011;30989;52.078;21.014;2023-04-09T10:04:44;6.57;;;4.38;;
45254;SDS011;30989;52.078;21.014;2023-04-09T10:07:15;9.40;;;4.20;;
45254;SDS011;30989;52.078;21.014;2023-04-09T10:09:41;6.65;;;3.78;;
45254;SDS011;30989;52.078;21.014;2023-04-09T10:12:12;5.53;;;3.47;;
45254;SDS011;30989;52.078;21.014;2023-04-09T10:14:38;5.03;;;2.90;;
45254;SDS011;30989;52.078;21.014;2023-04-09T10:17:04;7.25;;;3.53;;
45254;SDS011;30989;52.078;21.014;2023-04-09T10:19:30;7.68;;;3.90;;
45254;SDS011;30989;52.078;21.014;2023-04-09T10:22:12;6.88;;;3.38;;
45254;SDS011;30989;52.078;21.014;2023-04-09T10:24:42;7.35;;;3.42;;
45254;SDS011;30989;52.078;21.014;2023-04-09T10:27:08;8.73;;;3.55;;
45254;SDS011;30989;52.078;21.014;2023-04-09T10:29:36;6.63;;;3.65;;
45254;SDS011;30989;52.078;21.014;2023-04-09T10:32:07;7.28;;;3.38;;
45254;SDS011;30989;52.078;21.014;2023-04-09T10:34:39;7.55;;;3.28;;
45254;SDS011;30989;52.078;21.014;2023-04-09T10:37:06;6.30;;;2.95;;
45254;SDS011;30989;52.078;21.014;2023-04-09T10:39:36;7.38;;;3.58;;
45254;SDS011;30989;52.078;21.014;2023-04-09T10:42:10;7.95;;;3.50;;
45254;SDS011;30989;52.078;21.014;2023-04-09T10:44:43;21.45;;;11.98;;
45254;SDS011;30989;52.078;21.014;2023-04-09T10:47:09;8.20;;;4.18;;
45254;SDS011;30989;52.078;21.014;2023-04-09T10:49:36;12.40;;;3.90;;
45254;SDS011;30989;52.078;21.014;2023-04-09T10:52:09;8.48;;;3.75;;
45254;SDS011;30989;52.078;21.014;2023-04-09T10:54:36;7.93;;;3.13;;
45254;SDS011;30989;52.078;21.014;2023-04-09T10:57:12;6.00;;;2.80;;
45254;SDS011;30989;52.078;21.014;2023-04-09T10:59:41;6.22;;;3.05;;
45254;SDS011;30989;52.078;21.014;2023-04-09T11:07:52;6.03;;;2.63;;
45254;SDS011;30989;52.078;21.014;2023-04-09T11:10:22;7.18;;;3.13;;
45254;SDS011;30989;52.078;21.014;2023-04-09T11:12:47;6.68;;;3.15;;
45254;SDS011;30989;52.078;21.014;2023-04-09T11:15:17;14.77;;;3.00;;
45254;SDS011;30989;52.078;21.014;2023-04-09T11:17:47;6.15;;;2.95;;
45254;SDS011;30989;52.078;21.014;2023-04-09T11:20:13;6.30;;;2.45;;
45254;SDS011;30989;52.078;21.014;2023-04-09T11:22:45;5.15;;;2.97;;
45254;SDS011;30989;52.078;21.014;2023-04-09T11:25:18;8.27;;;3.90;;
45254;SDS011;30989;52.078;21.014;2023-04-09T11:27:50;5.60;;;2.75;;
45254;SDS011;30989;52.078;21.014;2023-04-09T11:30:16;6.72;;;3.20;;
45254;SDS011;30989;52.078;21.014;2023-04-09T11:32:42;6.00;;;3.25;;
45254;SDS011;30989;52.078;21.014;2023-04-09T11:35:11;11.50;;;3.22;;
45254;SDS011;30989;52.078;21.014;2023-04-09T11:37:38;4.13;;;2.50;;
45254;SDS011;30989;52.078;21.014;2023-04-09T11:40:04;5.30;;;3.15;;
45254;SDS011;30989;52.078;21.014;2023-04-09T11:42:30;6.45;;;3.15;;
45254;SDS011;30989;52.078;21.014;2023-04-09T11:44:55;7.10;;;2.97;;
45254;SDS011;30989;52.078;21.014;2023-04-09T11:47:22;5.95;;;3.22;;
45254;SDS011;30989;52.078;21.014;2023-04-09T11:49:48;6.60;;;3.40;;
45254;SDS011;30989;52.078;21.014;2023-04-09T11:52:14;5.97;;;2.95;;
45254;SDS011;30989;52.078;21.014;2023-04-09T11:54:47;6.38;;;3.55;;
45254;SDS011;30989;52.078;21.014;2023-04-09T11:57:13;6.72;;;3.25;;
45254;SDS011;30989;52.078;21.014;2023-04-09T11:59:39;7.88;;;3.97;;
45254;SDS011;30989;52.078;21.014;2023-04-09T12:02:05;6.93;;;3.35;;
45254;SDS011;30989;52.078;21.014;2023-04-09T12:04:32;14.95;;;7.50;;
45254;SDS011;30989;52.078;21.014;2023-04-09T12:06:57;6.13;;;3.55;;
45254;SDS011;30989;52.078;21.014;2023-04-09T12:09:23;7.63;;;3.72;;
45254;SDS011;30989;52.078;21.014;2023-04-09T12:11:49;5.85;;;3.38;;
45254;SDS011;30989;52.078;21.014;2023-04-09T12:14:15;6.78;;;3.00;;
45254;SDS011;30989;52.078;21.014;2023-04-09T12:16:41;6.90;;;3.33;;
45254;SDS011;30989;52.078;21.014;2023-04-09T12:19:10;8.18;;;3.40;;
45254;SDS011;30989;52.078;21.014;2023-04-09T12:21:53;7.18;;;3.45;;
45254;SDS011;30989;52.078;21.014;2023-04-09T12:24:21;11.20;;;3.83;;
45254;SDS011;30989;52.078;21.014;2023-04-09T12:26:48;7.57;;;4.30;;
45254;SDS011;30989;52.078;21.014;2023-04-09T12:29:18;7.55;;;3.65;;
45254;SDS011;30989;52.078;21.014;2023-04-09T12:31:44;7.15;;;3.13;;
45254;SDS011;30989;52.078;21.014;2023-04-09T12:34:11;5.82;;;3.17;;
45254;SDS011;30989;52.078;21.014;2023-04-09T12:36:37;6.15;;;3.35;;
45254;SDS011;30989;52.078;21.014;2023-04-09T12:39:04;6.82;;;3.38;;
45254;SDS011;30989;52.078;21.014;2023-04-09T12:41:30;4.35;;;2.47;;
45254;SDS011;30989;52.078;21.014;2023-04-09T12:43:55;7.05;;;3.38;;
45254;SDS011;30989;52.078;21.014;2023-04-09T12:46:24;6.22;;;3.38;;
45254;SDS011;30989;52.078;21.014;2023-04-09T12:48:49;7.97;;;3.28;;
45254;SDS011;30989;52.078;21.014;2023-04-09T12:51:18;6.53;;;3.45;;
45254;SDS011;30989;52.078;21.014;2023-04-09T12:53:45;7.90;;;3.60;;
45254;SDS011;30989;52.078;21.014;2023-04-09T12:56:10;6.50;;;3.28;;
45254;SDS011;30989;52.078;21.014;2023-04-09T12:58:36;16.33;;;5.57;;
45254;SDS011;30989;52.078;21.014;2023-04-09T13:01:02;6.10;;;3.20;;
45254;SDS011;30989;52.078;21.014;2023-04-09T13:03:28;4.97;;;3.05;;
45254;SDS011;30989;52.078;21.014;2023-04-09T13:05:54;6.53;;;3.50;;
45254;SDS011;30989;52.078;21.014;2023-04-09T13:08:20;7.55;;;2.70;;
45254;SDS011;30989;52.078;21.014;2023-04-09T13:10:45;6.50;;;3.33;;
45254;SDS011;30989;52.078;21.014;2023-04-09T13:13:11;5.15;;;2.78;;
45254;SDS011;30989;52.078;21.014;2023-04-09T13:15:37;8.07;;;3.03;;
45254;SDS011;30989;52.078;21.014;2023-04-09T13:18:09;8.00;;;3.50;;
45254;SDS011;30989;52.078;21.014;2023-04-09T13:20:35;6.90;;;3.72;;
45254;SDS011;30989;52.078;21.014;2023-04-09T13:23:01;4.85;;;2.88;;
45254;SDS011;30989;52.078;21.014;2023-04-09T13:25:30;4.35;;;2.80;;
45254;SDS011;30989;52.078;21.014;2023-04-09T13:27:55;5.78;;;2.90;;
45254;SDS011;30989;52.078;21.014;2023-04-09T13:30:21;6.05;;;3.35;;
45254;SDS011;30989;52.078;21.014;2023-04-09T13:32:47;7.22;;;3.05;;
45254;SDS011;30989;52.078;21.014;2023-04-09T13:35:12;5.68;;;3.22;;
45254;SDS011;30989;52.078;21.014;2023-04-09T13:37:38;6.75;;;2.80;;
45254;SDS011;30989;52.078;21.014;2023-04-09T13:40:03;8.50;;;2.80;;
45254;SDS011;30989;52.078;21.014;2023-04-09T13:42:29;8.02;;;3.35;;
45254;SDS011;30989;52.078;21.014;2023-04-09T13:44:55;6.35;;;3.13;;
45254;SDS011;30989;52.078;21.014;2023-04-09T13:47:21;11.38;;;3.42;;
45254;SDS011;30989;52.078;21.014;2023-04-09T13:49:47;6.30;;;3.50;;
45254;SDS011;30989;52.078;21.014;2023-04-09T13:52:15;7.65;;;3.53;;
45254;SDS011;30989;52.078;21.014;2023-04-09T13:54:41;6.65;;;3.45;;
45254;SDS011;30989;52.078;21.014;2023-04-09T13:57:06;8.02;;;3.20;;
45254;SDS011;30989;52.078;21.014;2023-04-09T13:59:32;5.95;;;3.30;;
45254;SDS011;30989;52.078;21.014;2023-04-09T14:01:57;5.53;;;3.10;;
45254;SDS011;30989;52.078;21.014;2023-04-09T14:04:23;7.50;;;4.28;;
45254;SDS011;30989;52.078;21.014;2023-04-09T14:06:48;6.03;;;3.05;;
45254;SDS011;30989;52.078;21.014;2023-04-09T14:09:15;6.88;;;3.10;;
45254;SDS011;30989;52.078;21.014;2023-04-09T14:11:40;6.13;;;3.13;;
45254;SDS011;30989;52.078;21.014;2023-04-09T14:14:06;7.85;;;3.80;;
45254;SDS011;30989;52.078;21.014;2023-04-09T14:16:31;7.57;;;2.83;;
45254;SDS011;30989;52.078;21.014;2023-04-09T14:18:57;6.60;;;3.15;;
45254;SDS011;30989;52.078;21.014;2023-04-09T14:21:23;5.07;;;3.15;;
45254;SDS011;30989;52.078;21.014;2023-04-09T14:23:48;14.60;;;3.65;;
45254;SDS011;30989;52.078;21.014;2023-04-09T14:26:14;4.75;;;2.70;;
45254;SDS011;30989;52.078;21.014;2023-04-09T14:28:44;5.43;;;3.10;;
45254;SDS011;30989;52.078;21.014;2023-04-09T14:31:11;10.23;;;5.03;;
45254;SDS011;30989;52.078;21.014;2023-04-09T14:33:38;5.45;;;3.30;;
45254;SDS011;30989;52.078;21.014;2023-04-09T14:36:04;4.97;;;3.33;;
45254;SDS011;30989;52.078;21.014;2023-04-09T14:38:30;7.63;;;3.63;;
45254;SDS011;30989;52.078;21.014;2023-04-09T14:40:56;5.90;;;3.30;;
45254;SDS011;30989;52.078;21.014;2023-04-09T14:43:22;7.45;;;3.25;;
45254;SDS011;30989;52.078;21.014;2023-04-09T14:45:47;7.90;;;3.30;;